Welkenraedt, Belgium
Current Conditions -  °F | °C
As of 3:25 AM on Saturday 25 Oct 2014 (Local Time) from EBLB Reporting Station
Overcast Overcast  
Wind Chill:   Ceiling: 400
Heat Index:   Visibility: 2.6mi
Dew Point:   Wind: 5mph
Humidity: 100%   Direction: 220°SW
Pressure: 30.06"   Gusts: NA
Location:  50.66°N, 5.97°E
Report Text: EBLB 250125Z AUTO 22004KT 4200 SCT002/// BKN004/// OVC006/// 07/07 Q1018 AMB
Loading
Personal Weather Stations






























Interactive Weather Map
Tropical Storm Tracking
New forecast layout! Learn more

10-Day Weather Forecast

Advertisements
Track Severe Weather on mobile